sensor_id;sensor_type;location;lat;lon;timestamp;P1;durP1;ratioP1;P2;durP2;ratioP2
3379;SDS011;1703;51.964;7.642;2023-05-10T00:02:04;3.30;;;2.50;;
3379;SDS011;1703;51.964;7.642;2023-05-10T00:04:31;4.17;;;2.87;;
3379;SDS011;1703;51.964;7.642;2023-05-10T00:06:57;2.30;;;2.10;;
3379;SDS011;1703;51.964;7.642;2023-05-10T00:09:24;3.00;;;2.40;;
3379;SDS011;1703;51.964;7.642;2023-05-10T00:11:52;3.87;;;2.60;;
3379;SDS011;1703;51.964;7.642;2023-05-10T00:14:19;4.10;;;3.70;;
3379;SDS011;1703;51.964;7.642;2023-05-10T00:16:46;7.00;;;3.73;;
3379;SDS011;1703;51.964;7.642;2023-05-10T00:19:12;4.53;;;3.03;;
3379;SDS011;1703;51.964;7.642;2023-05-10T00:21:39;4.50;;;4.10;;
3379;SDS011;1703;51.964;7.642;2023-05-10T00:24:06;4.70;;;4.30;;
3379;SDS011;1703;51.964;7.642;2023-05-10T00:26:33;4.47;;;4.03;;
3379;SDS011;1703;51.964;7.642;2023-05-10T00:29:01;4.73;;;4.33;;
3379;SDS011;1703;51.964;7.642;2023-05-10T00:31:28;4.73;;;4.27;;
3379;SDS011;1703;51.964;7.642;2023-05-10T00:33:56;5.90;;;5.30;;
3379;SDS011;1703;51.964;7.642;2023-05-10T00:36:23;5.70;;;5.13;;
3379;SDS011;1703;51.964;7.642;2023-05-10T00:38:49;5.07;;;4.67;;
3379;SDS011;1703;51.964;7.642;2023-05-10T00:41:16;8.73;;;5.33;;
3379;SDS011;1703;51.964;7.642;2023-05-10T00:43:44;6.30;;;4.67;;
3379;SDS011;1703;51.964;7.642;2023-05-10T00:46:12;4.03;;;3.73;;
3379;SDS011;1703;51.964;7.642;2023-05-10T00:48:40;4.00;;;3.70;;
3379;SDS011;1703;51.964;7.642;2023-05-10T00:51:07;6.37;;;4.63;;
3379;SDS011;1703;51.964;7.642;2023-05-10T00:53:34;5.47;;;4.87;;
3379;SDS011;1703;51.964;7.642;2023-05-10T00:56:01;5.30;;;4.80;;
3379;SDS011;1703;51.964;7.642;2023-05-10T00:58:28;5.70;;;5.10;;
3379;SDS011;1703;51.964;7.642;2023-05-10T01:00:56;5.97;;;5.07;;
3379;SDS011;1703;51.964;7.642;2023-05-10T01:03:24;6.40;;;5.00;;
3379;SDS011;1703;51.964;7.642;2023-05-10T01:05:51;5.37;;;4.87;;
3379;SDS011;1703;51.964;7.642;2023-05-10T01:08:18;6.20;;;5.07;;
3379;SDS011;1703;51.964;7.642;2023-05-10T01:10:45;5.67;;;5.07;;
3379;SDS011;1703;51.964;7.642;2023-05-10T01:13:14;6.10;;;5.60;;
3379;SDS011;1703;51.964;7.642;2023-05-10T01:15:58;10.67;;;4.20;;
3379;SDS011;1703;51.964;7.642;2023-05-10T01:18:28;5.80;;;5.10;;
3379;SDS011;1703;51.964;7.642;2023-05-10T01:21:02;4.40;;;4.00;;
3379;SDS011;1703;51.964;7.642;2023-05-10T01:23:44;3.97;;;3.63;;
3379;SDS011;1703;51.964;7.642;2023-05-10T01:26:39;3.80;;;3.50;;
3379;SDS011;1703;51.964;7.642;2023-05-10T01:32:35;3.17;;;2.97;;
3379;SDS011;1703;51.964;7.642;2023-05-10T01:35:08;2.33;;;2.20;;
3379;SDS011;1703;51.964;7.642;2023-05-10T01:37:41;2.33;;;2.13;;
3379;SDS011;1703;51.964;7.642;2023-05-10T01:40:13;2.13;;;2.03;;
3379;SDS011;1703;51.964;7.642;2023-05-10T01:42:49;5.00;;;2.50;;
3379;SDS011;1703;51.964;7.642;2023-05-10T01:45:20;1.90;;;1.80;;
3379;SDS011;1703;51.964;7.642;2023-05-10T01:47:54;1.63;;;1.53;;
3379;SDS011;1703;51.964;7.642;2023-05-10T01:50:29;2.00;;;1.43;;
3379;SDS011;1703;51.964;7.642;2023-05-10T01:52:57;2.10;;;1.90;;
3379;SDS011;1703;51.964;7.642;2023-05-10T01:55:27;1.40;;;1.27;;
3379;SDS011;1703;51.964;7.642;2023-05-10T01:58:00;1.27;;;1.10;;
3379;SDS011;1703;51.964;7.642;2023-05-10T02:00:30;1.30;;;1.20;;
3379;SDS011;1703;51.964;7.642;2023-05-10T02:02:59;0.80;;;0.70;;
3379;SDS011;1703;51.964;7.642;2023-05-10T02:05:27;0.70;;;0.70;;
3379;SDS011;1703;51.964;7.642;2023-05-10T02:07:56;1.00;;;0.80;;
3379;SDS011;1703;51.964;7.642;2023-05-10T02:10:24;0.83;;;0.70;;
3379;SDS011;1703;51.964;7.642;2023-05-10T02:12:51;1.10;;;0.83;;
3379;SDS011;1703;51.964;7.642;2023-05-10T02:15:20;2.03;;;1.00;;
3379;SDS011;1703;51.964;7.642;2023-05-10T02:17:49;1.50;;;1.30;;
3379;SDS011;1703;51.964;7.642;2023-05-10T02:20:18;1.10;;;1.00;;
3379;SDS011;1703;51.964;7.642;2023-05-10T02:22:47;1.63;;;1.00;;
3379;SDS011;1703;51.964;7.642;2023-05-10T02:25:15;1.90;;;1.50;;
3379;SDS011;1703;51.964;7.642;2023-05-10T02:27:43;1.40;;;1.30;;
3379;SDS011;1703;51.964;7.642;2023-05-10T02:30:12;1.63;;;1.17;;
3379;SDS011;1703;51.964;7.642;2023-05-10T02:32:41;2.40;;;1.40;;
3379;SDS011;1703;51.964;7.642;2023-05-10T02:35:09;1.97;;;1.87;;
3379;SDS011;1703;51.964;7.642;2023-05-10T02:37:38;1.60;;;1.43;;
3379;SDS011;1703;51.964;7.642;2023-05-10T02:40:06;1.57;;;1.47;;
3379;SDS011;1703;51.964;7.642;2023-05-10T02:42:36;3.00;;;1.83;;
3379;SDS011;1703;51.964;7.642;2023-05-10T02:45:07;2.03;;;1.83;;
3379;SDS011;1703;51.964;7.642;2023-05-10T02:47:37;1.93;;;1.80;;
3379;SDS011;1703;51.964;7.642;2023-05-10T02:50:04;3.50;;;1.90;;
3379;SDS011;1703;51.964;7.642;2023-05-10T02:52:36;3.07;;;2.37;;
3379;SDS011;1703;51.964;7.642;2023-05-10T02:55:09;2.97;;;2.70;;
3379;SDS011;1703;51.964;7.642;2023-05-10T02:57:40;6.30;;;3.87;;
3379;SDS011;1703;51.964;7.642;2023-05-10T03:00:10;2.77;;;2.53;;
3379;SDS011;1703;51.964;7.642;2023-05-10T03:02:37;2.80;;;2.07;;
3379;SDS011;1703;51.964;7.642;2023-05-10T03:05:04;2.87;;;2.67;;
3379;SDS011;1703;51.964;7.642;2023-05-10T03:07:32;2.90;;;2.70;;
3379;SDS011;1703;51.964;7.642;2023-05-10T03:10:00;2.33;;;2.13;;
3379;SDS011;1703;51.964;7.642;2023-05-10T03:12:31;9.93;;;3.20;;
3379;SDS011;1703;51.964;7.642;2023-05-10T03:15:14;3.17;;;2.97;;
3379;SDS011;1703;51.964;7.642;2023-05-10T03:17:50;3.27;;;3.03;;
3379;SDS011;1703;51.964;7.642;2023-05-10T03:20:24;2.90;;;2.70;;
3379;SDS011;1703;51.964;7.642;2023-05-10T03:22:55;3.57;;;3.20;;
3379;SDS011;1703;51.964;7.642;2023-05-10T03:25:30;5.70;;;2.63;;
3379;SDS011;1703;51.964;7.642;2023-05-10T03:27:57;3.70;;;2.93;;
3379;SDS011;1703;51.964;7.642;2023-05-10T03:30:27;3.30;;;2.40;;
3379;SDS011;1703;51.964;7.642;2023-05-10T03:32:54;3.70;;;3.20;;
3379;SDS011;1703;51.964;7.642;2023-05-10T03:35:23;3.40;;;2.43;;
3379;SDS011;1703;51.964;7.642;2023-05-10T03:37:50;2.70;;;2.50;;
3379;SDS011;1703;51.964;7.642;2023-05-10T03:40:17;4.60;;;3.23;;
3379;SDS011;1703;51.964;7.642;2023-05-10T03:42:45;3.63;;;3.20;;
3379;SDS011;1703;51.964;7.642;2023-05-10T03:45:12;3.50;;;3.20;;
3379;SDS011;1703;51.964;7.642;2023-05-10T03:47:39;3.40;;;3.10;;
3379;SDS011;1703;51.964;7.642;2023-05-10T03:50:07;5.60;;;3.27;;
3379;SDS011;1703;51.964;7.642;2023-05-10T03:52:35;2.67;;;2.47;;
3379;SDS011;1703;51.964;7.642;2023-05-10T03:55:04;3.50;;;3.20;;
3379;SDS011;1703;51.964;7.642;2023-05-10T03:57:32;3.10;;;2.80;;
3379;SDS011;1703;51.964;7.642;2023-05-10T04:00:00;3.40;;;3.10;;
3379;SDS011;1703;51.964;7.642;2023-05-10T04:02:27;3.43;;;3.13;;
3379;SDS011;1703;51.964;7.642;2023-05-10T04:04:55;3.43;;;3.23;;
3379;SDS011;1703;51.964;7.642;2023-05-10T04:07:22;6.40;;;3.50;;
3379;SDS011;1703;51.964;7.642;2023-05-10T04:09:49;5.67;;;3.30;;
3379;SDS011;1703;51.964;7.642;2023-05-10T04:12:16;4.40;;;3.07;;
3379;SDS011;1703;51.964;7.642;2023-05-10T04:14:43;4.07;;;3.20;;
3379;SDS011;1703;51.964;7.642;2023-05-10T04:17:11;4.53;;;2.80;;
3379;SDS011;1703;51.964;7.642;2023-05-10T04:19:38;3.87;;;3.07;;
3379;SDS011;1703;51.964;7.642;2023-05-10T04:22:04;3.37;;;3.07;;
3379;SDS011;1703;51.964;7.642;2023-05-10T04:24:31;4.30;;;4.00;;
3379;SDS011;1703;51.964;7.642;2023-05-10T04:26:58;3.43;;;3.00;;
3379;SDS011;1703;51.964;7.642;2023-05-10T04:29:26;5.23;;;3.30;;
3379;SDS011;1703;51.964;7.642;2023-05-10T04:31:53;4.23;;;3.60;;
3379;SDS011;1703;51.964;7.642;2023-05-10T04:34:22;6.83;;;3.20;;
3379;SDS011;1703;51.964;7.642;2023-05-10T04:36:49;3.30;;;2.70;;
3379;SDS011;1703;51.964;7.642;2023-05-10T04:39:16;4.00;;;3.47;;
3379;SDS011;1703;51.964;7.642;2023-05-10T04:41:43;3.57;;;3.27;;
3379;SDS011;1703;51.964;7.642;2023-05-10T04:44:10;4.47;;;3.20;;
3379;SDS011;1703;51.964;7.642;2023-05-10T04:46:37;4.27;;;3.80;;
3379;SDS011;1703;51.964;7.642;2023-05-10T04:49:03;5.60;;;4.37;;
3379;SDS011;1703;51.964;7.642;2023-05-10T04:51:31;6.63;;;4.37;;
3379;SDS011;1703;51.964;7.642;2023-05-10T04:53:58;5.47;;;4.90;;
3379;SDS011;1703;51.964;7.642;2023-05-10T04:56:25;8.10;;;4.27;;
3379;SDS011;1703;51.964;7.642;2023-05-10T04:58:52;5.63;;;4.80;;
3379;SDS011;1703;51.964;7.642;2023-05-10T05:01:19;6.50;;;5.10;;
3379;SDS011;1703;51.964;7.642;2023-05-10T05:03:46;8.07;;;5.67;;
3379;SDS011;1703;51.964;7.642;2023-05-10T05:06:12;7.50;;;6.50;;
3379;SDS011;1703;51.964;7.642;2023-05-10T05:08:41;7.60;;;6.50;;
3379;SDS011;1703;51.964;7.642;2023-05-10T05:11:07;9.20;;;6.37;;
3379;SDS011;1703;51.964;7.642;2023-05-10T05:13:34;7.40;;;6.20;;
3379;SDS011;1703;51.964;7.642;2023-05-10T05:16:01;10.20;;;6.87;;
3379;SDS011;1703;51.964;7.642;2023-05-10T05:18:28;9.97;;;6.40;;
3379;SDS011;1703;51.964;7.642;2023-05-10T05:20:55;9.27;;;7.10;;
3379;SDS011;1703;51.964;7.642;2023-05-10T05:23:22;8.20;;;6.83;;
3379;SDS011;1703;51.964;7.642;2023-05-10T05:25:52;9.20;;;6.90;;
3379;SDS011;1703;51.964;7.642;2023-05-10T05:28:19;11.70;;;8.03;;
3379;SDS011;1703;51.964;7.642;2023-05-10T05:30:46;10.80;;;8.40;;
3379;SDS011;1703;51.964;7.642;2023-05-10T05:33:13;13.20;;;8.50;;
3379;SDS011;1703;51.964;7.642;2023-05-10T05:35:41;14.80;;;9.00;;
3379;SDS011;1703;51.964;7.642;2023-05-10T05:38:12;14.87;;;9.00;;
3379;SDS011;1703;51.964;7.642;2023-05-10T05:40:39;14.27;;;10.67;;
3379;SDS011;1703;51.964;7.642;2023-05-10T05:43:07;14.70;;;9.87;;
3379;SDS011;1703;51.964;7.642;2023-05-10T05:45:34;20.30;;;11.63;;
3379;SDS011;1703;51.964;7.642;2023-05-10T05:48:01;15.90;;;11.23;;
3379;SDS011;1703;51.964;7.642;2023-05-10T05:50:28;16.53;;;11.13;;
3379;SDS011;1703;51.964;7.642;2023-05-10T05:52:54;18.60;;;10.60;;
3379;SDS011;1703;51.964;7.642;2023-05-10T05:55:22;18.50;;;11.47;;
3379;SDS011;1703;51.964;7.642;2023-05-10T05:57:49;19.70;;;11.13;;
3379;SDS011;1703;51.964;7.642;2023-05-10T06:00:17;29.27;;;16.03;;
3379;SDS011;1703;51.964;7.642;2023-05-10T06:02:44;23.67;;;13.87;;
3379;SDS011;1703;51.964;7.642;2023-05-10T06:05:11;27.63;;;14.23;;
3379;SDS011;1703;51.964;7.642;2023-05-10T06:07:39;23.90;;;14.00;;
3379;SDS011;1703;51.964;7.642;2023-05-10T06:10:07;28.13;;;15.37;;
3379;SDS011;1703;51.964;7.642;2023-05-10T06:12:34;29.30;;;16.70;;
3379;SDS011;1703;51.964;7.642;2023-05-10T06:15:00;32.10;;;15.70;;
3379;SDS011;1703;51.964;7.642;2023-05-10T06:17:29;27.70;;;15.93;;
3379;SDS011;1703;51.964;7.642;2023-05-10T06:19:56;32.83;;;17.10;;
3379;SDS011;1703;51.964;7.642;2023-05-10T06:22:22;27.13;;;15.47;;
3379;SDS011;1703;51.964;7.642;2023-05-10T06:24:50;31.17;;;15.50;;
3379;SDS011;1703;51.964;7.642;2023-05-10T06:27:16;43.87;;;17.63;;
3379;SDS011;1703;51.964;7.642;2023-05-10T06:29:43;35.87;;;17.40;;
3379;SDS011;1703;51.964;7.642;2023-05-10T06:32:10;27.43;;;14.77;;
3379;SDS011;1703;51.964;7.642;2023-05-10T06:34:38;22.70;;;13.47;;
3379;SDS011;1703;51.964;7.642;2023-05-10T06:37:05;23.60;;;14.27;;
3379;SDS011;1703;51.964;7.642;2023-05-10T06:39:32;33.13;;;13.50;;
3379;SDS011;1703;51.964;7.642;2023-05-10T06:41:59;27.63;;;12.80;;
3379;SDS011;1703;51.964;7.642;2023-05-10T06:44:31;28.33;;;12.50;;
3379;SDS011;1703;51.964;7.642;2023-05-10T06:46:58;21.17;;;13.00;;
3379;SDS011;1703;51.964;7.642;2023-05-10T06:49:25;20.90;;;10.80;;
3379;SDS011;1703;51.964;7.642;2023-05-10T06:51:53;19.80;;;12.27;;
3379;SDS011;1703;51.964;7.642;2023-05-10T06:54:21;20.87;;;13.07;;
3379;SDS011;1703;51.964;7.642;2023-05-10T06:56:48;20.47;;;14.13;;
3379;SDS011;1703;51.964;7.642;2023-05-10T06:59:15;23.90;;;13.90;;
3379;SDS011;1703;51.964;7.642;2023-05-10T07:01:44;28.90;;;16.50;;
3379;SDS011;1703;51.964;7.642;2023-05-10T07:04:11;27.13;;;14.33;;
3379;SDS011;1703;51.964;7.642;2023-05-10T07:06:38;30.63;;;17.33;;
3379;SDS011;1703;51.964;7.642;2023-05-10T07:09:06;32.60;;;19.00;;
3379;SDS011;1703;51.964;7.642;2023-05-10T07:11:33;29.57;;;15.90;;
3379;SDS011;1703;51.964;7.642;2023-05-10T07:14:01;35.93;;;18.40;;
3379;SDS011;1703;51.964;7.642;2023-05-10T07:16:28;37.97;;;20.17;;
3379;SDS011;1703;51.964;7.642;2023-05-10T07:18:54;37.87;;;19.87;;
3379;SDS011;1703;51.964;7.642;2023-05-10T07:21:21;41.90;;;22.50;;
3379;SDS011;1703;51.964;7.642;2023-05-10T07:23:49;38.93;;;21.87;;
3379;SDS011;1703;51.964;7.642;2023-05-10T07:26:18;48.67;;;24.00;;
3379;SDS011;1703;51.964;7.642;2023-05-10T07:28:45;43.37;;;21.60;;
3379;SDS011;1703;51.964;7.642;2023-05-10T07:31:12;40.50;;;25.07;;
3379;SDS011;1703;51.964;7.642;2023-05-10T07:33:39;48.87;;;25.40;;
3379;SDS011;1703;51.964;7.642;2023-05-10T07:36:06;43.50;;;24.00;;
3379;SDS011;1703;51.964;7.642;2023-05-10T07:38:33;42.50;;;24.90;;
3379;SDS011;1703;51.964;7.642;2023-05-10T07:41:00;43.97;;;25.77;;
3379;SDS011;1703;51.964;7.642;2023-05-10T07:43:28;48.83;;;26.97;;
3379;SDS011;1703;51.964;7.642;2023-05-10T07:45:55;47.10;;;25.67;;
3379;SDS011;1703;51.964;7.642;2023-05-10T07:48:22;46.17;;;27.27;;
3379;SDS011;1703;51.964;7.642;2023-05-10T07:50:49;59.17;;;26.00;;
3379;SDS011;1703;51.964;7.642;2023-05-10T07:53:16;46.90;;;25.70;;
3379;SDS011;1703;51.964;7.642;2023-05-10T07:55:43;49.23;;;25.40;;
3379;SDS011;1703;51.964;7.642;2023-05-10T07:58:19;53.20;;;25.60;;
3379;SDS011;1703;51.964;7.642;2023-05-10T08:00:47;44.13;;;25.07;;
3379;SDS011;1703;51.964;7.642;2023-05-10T08:03:14;39.90;;;24.17;;
3379;SDS011;1703;51.964;7.642;2023-05-10T08:05:41;41.10;;;23.00;;
3379;SDS011;1703;51.964;7.642;2023-05-10T08:08:08;41.37;;;24.10;;
3379;SDS011;1703;51.964;7.642;2023-05-10T08:10:35;39.40;;;23.50;;
3379;SDS011;1703;51.964;7.642;2023-05-10T08:13:02;33.30;;;22.37;;
3379;SDS011;1703;51.964;7.642;2023-05-10T08:15:29;34.70;;;21.57;;
3379;SDS011;1703;51.964;7.642;2023-05-10T08:17:59;37.37;;;21.97;;
3379;SDS011;1703;51.964;7.642;2023-05-10T08:20:26;40.13;;;23.23;;
3379;SDS011;1703;51.964;7.642;2023-05-10T08:22:53;43.73;;;23.60;;
3379;SDS011;1703;51.964;7.642;2023-05-10T08:25:20;43.77;;;21.87;;
3379;SDS011;1703;51.964;7.642;2023-05-10T08:27:47;38.60;;;23.90;;
3379;SDS011;1703;51.964;7.642;2023-05-10T08:30:14;42.43;;;23.03;;
3379;SDS011;1703;51.964;7.642;2023-05-10T08:32:41;40.27;;;22.70;;
3379;SDS011;1703;51.964;7.642;2023-05-10T08:35:09;34.27;;;20.63;;
3379;SDS011;1703;51.964;7.642;2023-05-10T08:37:36;36.13;;;22.00;;
3379;SDS011;1703;51.964;7.642;2023-05-10T08:40:03;37.10;;;21.90;;
3379;SDS011;1703;51.964;7.642;2023-05-10T08:42:30;35.33;;;20.60;;
3379;SDS011;1703;51.964;7.642;2023-05-10T08:45:03;33.43;;;20.60;;
3379;SDS011;1703;51.964;7.642;2023-05-10T08:47:31;34.83;;;21.33;;
3379;SDS011;1703;51.964;7.642;2023-05-10T08:49:59;33.60;;;21.43;;
3379;SDS011;1703;51.964;7.642;2023-05-10T08:52:27;40.00;;;20.70;;
3379;SDS011;1703;51.964;7.642;2023-05-10T08:54:56;38.40;;;21.03;;
3379;SDS011;1703;51.964;7.642;2023-05-10T08:57:23;34.73;;;22.13;;
3379;SDS011;1703;51.964;7.642;2023-05-10T08:59:50;32.10;;;20.13;;
3379;SDS011;1703;51.964;7.642;2023-05-10T09:02:16;33.33;;;19.70;;
3379;SDS011;1703;51.964;7.642;2023-05-10T09:04:46;35.37;;;20.60;;
3379;SDS011;1703;51.964;7.642;2023-05-10T09:07:13;30.00;;;18.00;;
3379;SDS011;1703;51.964;7.642;2023-05-10T09:09:42;31.70;;;18.30;;
3379;SDS011;1703;51.964;7.642;2023-05-10T09:12:09;31.20;;;19.13;;
3379;SDS011;1703;51.964;7.642;2023-05-10T09:14:37;29.27;;;17.63;;
3379;SDS011;1703;51.964;7.642;2023-05-10T09:17:04;32.37;;;18.60;;
3379;SDS011;1703;51.964;7.642;2023-05-10T09:19:31;30.27;;;20.20;;
3379;SDS011;1703;51.964;7.642;2023-05-10T09:21:58;28.70;;;18.77;;
3379;SDS011;1703;51.964;7.642;2023-05-10T09:24:27;30.93;;;18.10;;
3379;SDS011;1703;51.964;7.642;2023-05-10T09:26:57;27.87;;;19.23;;
3379;SDS011;1703;51.964;7.642;2023-05-10T09:29:24;27.90;;;17.20;;
3379;SDS011;1703;51.964;7.642;2023-05-10T09:31:52;26.60;;;17.03;;
3379;SDS011;1703;51.964;7.642;2023-05-10T09:34:22;30.90;;;17.87;;
3379;SDS011;1703;51.964;7.642;2023-05-10T09:36:56;32.00;;;19.10;;
3379;SDS011;1703;51.964;7.642;2023-05-10T09:39:32;30.73;;;19.70;;
3379;SDS011;1703;51.964;7.642;2023-05-10T09:42:01;29.57;;;16.77;;
3379;SDS011;1703;51.964;7.642;2023-05-10T09:44:30;30.50;;;17.40;;
3379;SDS011;1703;51.964;7.642;2023-05-10T09:46:57;25.10;;;16.90;;
3379;SDS011;1703;51.964;7.642;2023-05-10T09:49:24;28.47;;;18.80;;
3379;SDS011;1703;51.964;7.642;2023-05-10T09:51:59;28.23;;;17.00;;
3379;SDS011;1703;51.964;7.642;2023-05-10T09:54:27;29.07;;;15.70;;
3379;SDS011;1703;51.964;7.642;2023-05-10T09:56:54;26.90;;;17.40;;
3379;SDS011;1703;51.964;7.642;2023-05-10T09:59:24;26.27;;;16.10;;
3379;SDS011;1703;51.964;7.642;2023-05-10T10:01:52;29.30;;;15.47;;
3379;SDS011;1703;51.964;7.642;2023-05-10T10:04:19;21.83;;;15.97;;
3379;SDS011;1703;51.964;7.642;2023-05-10T10:06:46;28.60;;;18.17;;
3379;SDS011;1703;51.964;7.642;2023-05-10T10:09:24;21.20;;;14.83;;
3379;SDS011;1703;51.964;7.642;2023-05-10T10:11:51;30.73;;;16.17;;
3379;SDS011;1703;51.964;7.642;2023-05-10T10:14:18;22.83;;;15.80;;
3379;SDS011;1703;51.964;7.642;2023-05-10T10:16:46;24.07;;;16.57;;
3379;SDS011;1703;51.964;7.642;2023-05-10T10:19:13;23.07;;;15.20;;
3379;SDS011;1703;51.964;7.642;2023-05-10T10:21:41;27.30;;;15.07;;
3379;SDS011;1703;51.964;7.642;2023-05-10T10:24:08;23.60;;;15.10;;
3379;SDS011;1703;51.964;7.642;2023-05-10T10:26:34;32.77;;;15.80;;
3379;SDS011;1703;51.964;7.642;2023-05-10T10:29:06;23.83;;;15.60;;
3379;SDS011;1703;51.964;7.642;2023-05-10T10:31:52;27.53;;;18.20;;
3379;SDS011;1703;51.964;7.642;2023-05-10T10:34:25;23.97;;;16.67;;
3379;SDS011;1703;51.964;7.642;2023-05-10T10:36:53;27.17;;;16.77;;
3379;SDS011;1703;51.964;7.642;2023-05-10T10:39:22;22.93;;;15.60;;
3379;SDS011;1703;51.964;7.642;2023-05-10T10:41:50;32.80;;;16.87;;
3379;SDS011;1703;51.964;7.642;2023-05-10T10:44:22;24.57;;;16.60;;
3379;SDS011;1703;51.964;7.642;2023-05-10T10:47:02;30.20;;;17.03;;
3379;SDS011;1703;51.964;7.642;2023-05-10T10:50:04;23.73;;;17.73;;
3379;SDS011;1703;51.964;7.642;2023-05-10T10:52:33;34.93;;;19.63;;
3379;SDS011;1703;51.964;7.642;2023-05-10T10:55:02;29.17;;;17.90;;
3379;SDS011;1703;51.964;7.642;2023-05-10T10:57:31;22.30;;;16.10;;
3379;SDS011;1703;51.964;7.642;2023-05-10T11:00:18;27.27;;;16.70;;
3379;SDS011;1703;51.964;7.642;2023-05-10T11:02:49;21.57;;;14.40;;
3379;SDS011;1703;51.964;7.642;2023-05-10T11:05:24;24.93;;;14.67;;
3379;SDS011;1703;51.964;7.642;2023-05-10T11:08:06;22.30;;;14.97;;
3379;SDS011;1703;51.964;7.642;2023-05-10T11:10:51;30.30;;;16.70;;
3379;SDS011;1703;51.964;7.642;2023-05-10T11:13:29;27.00;;;16.80;;
3379;SDS011;1703;51.964;7.642;2023-05-10T11:15:57;21.03;;;15.13;;
3379;SDS011;1703;51.964;7.642;2023-05-10T11:18:26;30.30;;;17.27;;
3379;SDS011;1703;51.964;7.642;2023-05-10T11:20:56;22.40;;;14.87;;
3379;SDS011;1703;51.964;7.642;2023-05-10T11:23:29;25.27;;;14.17;;
3379;SDS011;1703;51.964;7.642;2023-05-10T11:25:56;27.17;;;14.67;;
3379;SDS011;1703;51.964;7.642;2023-05-10T11:28:24;25.90;;;15.60;;
3379;SDS011;1703;51.964;7.642;2023-05-10T11:30:53;25.53;;;16.47;;
3379;SDS011;1703;51.964;7.642;2023-05-10T11:33:20;23.47;;;16.87;;
3379;SDS011;1703;51.964;7.642;2023-05-10T11:35:48;22.23;;;15.50;;
3379;SDS011;1703;51.964;7.642;2023-05-10T11:38:15;21.87;;;14.10;;
3379;SDS011;1703;51.964;7.642;2023-05-10T11:40:42;23.77;;;15.63;;
3379;SDS011;1703;51.964;7.642;2023-05-10T11:43:09;26.30;;;15.60;;
3379;SDS011;1703;51.964;7.642;2023-05-10T11:45:37;22.53;;;16.43;;
3379;SDS011;1703;51.964;7.642;2023-05-10T11:48:05;19.10;;;15.20;;
3379;SDS011;1703;51.964;7.642;2023-05-10T11:50:33;23.20;;;15.30;;
3379;SDS011;1703;51.964;7.642;2023-05-10T11:53:01;24.10;;;14.93;;
3379;SDS011;1703;51.964;7.642;2023-05-10T11:55:28;22.50;;;15.43;;
3379;SDS011;1703;51.964;7.642;2023-05-10T11:57:59;19.60;;;14.10;;
3379;SDS011;1703;51.964;7.642;2023-05-10T12:00:27;24.93;;;15.97;;
3379;SDS011;1703;51.964;7.642;2023-05-10T12:02:54;21.97;;;13.43;;
3379;SDS011;1703;51.964;7.642;2023-05-10T12:05:21;25.67;;;14.87;;
3379;SDS011;1703;51.964;7.642;2023-05-10T12:07:48;23.13;;;15.77;;
3379;SDS011;1703;51.964;7.642;2023-05-10T12:10:17;21.60;;;14.43;;
3379;SDS011;1703;51.964;7.642;2023-05-10T12:12:52;19.23;;;14.87;;
3379;SDS011;1703;51.964;7.642;2023-05-10T12:15:19;30.07;;;16.53;;
3379;SDS011;1703;51.964;7.642;2023-05-10T12:17:47;22.40;;;14.33;;
3379;SDS011;1703;51.964;7.642;2023-05-10T12:20:15;20.00;;;14.60;;
3379;SDS011;1703;51.964;7.642;2023-05-10T12:22:44;20.30;;;13.07;;
3379;SDS011;1703;51.964;7.642;2023-05-10T12:25:11;21.47;;;14.60;;
3379;SDS011;1703;51.964;7.642;2023-05-10T12:27:39;22.63;;;14.00;;
3379;SDS011;1703;51.964;7.642;2023-05-10T12:30:07;25.63;;;14.93;;
3379;SDS011;1703;51.964;7.642;2023-05-10T12:32:38;19.77;;;13.60;;
3379;SDS011;1703;51.964;7.642;2023-05-10T12:35:06;20.10;;;12.57;;
3379;SDS011;1703;51.964;7.642;2023-05-10T12:37:33;17.17;;;12.03;;
3379;SDS011;1703;51.964;7.642;2023-05-10T12:40:04;22.73;;;14.60;;
3379;SDS011;1703;51.964;7.642;2023-05-10T12:42:33;22.43;;;13.30;;
3379;SDS011;1703;51.964;7.642;2023-05-10T12:45:02;20.40;;;13.20;;
3379;SDS011;1703;51.964;7.642;2023-05-10T12:47:30;22.73;;;13.20;;
3379;SDS011;1703;51.964;7.642;2023-05-10T12:49:57;17.83;;;12.30;;
3379;SDS011;1703;51.964;7.642;2023-05-10T12:52:24;12.77;;;10.63;;
3379;SDS011;1703;51.964;7.642;2023-05-10T12:54:51;13.47;;;9.77;;
3379;SDS011;1703;51.964;7.642;2023-05-10T12:57:18;15.53;;;10.97;;
3379;SDS011;1703;51.964;7.642;2023-05-10T12:59:44;23.63;;;10.10;;
3379;SDS011;1703;51.964;7.642;2023-05-10T13:02:13;14.57;;;10.30;;
3379;SDS011;1703;51.964;7.642;2023-05-10T13:04:40;16.17;;;11.20;;
3379;SDS011;1703;51.964;7.642;2023-05-10T13:07:07;15.37;;;10.43;;
3379;SDS011;1703;51.964;7.642;2023-05-10T13:09:34;10.60;;;9.00;;
3379;SDS011;1703;51.964;7.642;2023-05-10T13:12:01;11.47;;;8.77;;
3379;SDS011;1703;51.964;7.642;2023-05-10T13:14:29;13.87;;;8.20;;
3379;SDS011;1703;51.964;7.642;2023-05-10T13:16:55;15.70;;;8.53;;
3379;SDS011;1703;51.964;7.642;2023-05-10T13:19:24;13.67;;;9.50;;
3379;SDS011;1703;51.964;7.642;2023-05-10T13:21:52;15.53;;;9.87;;
3379;SDS011;1703;51.964;7.642;2023-05-10T13:24:18;16.90;;;11.70;;
3379;SDS011;1703;51.964;7.642;2023-05-10T13:26:45;13.67;;;10.80;;
3379;SDS011;1703;51.964;7.642;2023-05-10T13:29:12;15.30;;;10.17;;
3379;SDS011;1703;51.964;7.642;2023-05-10T13:31:39;15.00;;;10.20;;
3379;SDS011;1703;51.964;7.642;2023-05-10T13:34:08;16.27;;;10.53;;
3379;SDS011;1703;51.964;7.642;2023-05-10T13:36:36;18.90;;;10.67;;
3379;SDS011;1703;51.964;7.642;2023-05-10T13:39:03;18.53;;;11.20;;
3379;SDS011;1703;51.964;7.642;2023-05-10T13:41:30;19.77;;;14.20;;
3379;SDS011;1703;51.964;7.642;2023-05-10T13:43:57;19.30;;;13.13;;
3379;SDS011;1703;51.964;7.642;2023-05-10T13:46:24;19.97;;;13.83;;
3379;SDS011;1703;51.964;7.642;2023-05-10T13:48:50;26.00;;;13.87;;
3379;SDS011;1703;51.964;7.642;2023-05-10T13:51:17;23.83;;;15.83;;
3379;SDS011;1703;51.964;7.642;2023-05-10T13:53:46;25.67;;;14.43;;
3379;SDS011;1703;51.964;7.642;2023-05-10T13:56:13;25.43;;;14.83;;
3379;SDS011;1703;51.964;7.642;2023-05-10T13:58:40;23.63;;;14.30;;
3379;SDS011;1703;51.964;7.642;2023-05-10T14:01:07;25.67;;;16.20;;
3379;SDS011;1703;51.964;7.642;2023-05-10T14:03:33;26.13;;;16.30;;
3379;SDS011;1703;51.964;7.642;2023-05-10T14:06:00;29.07;;;15.77;;
3379;SDS011;1703;51.964;7.642;2023-05-10T14:08:27;20.80;;;15.40;;
3379;SDS011;1703;51.964;7.642;2023-05-10T14:10:55;25.90;;;16.80;;
3379;SDS011;1703;51.964;7.642;2023-05-10T14:13:23;40.63;;;17.43;;
3379;SDS011;1703;51.964;7.642;2023-05-10T14:15:50;23.57;;;16.23;;
3379;SDS011;1703;51.964;7.642;2023-05-10T14:18:18;19.90;;;14.17;;
3379;SDS011;1703;51.964;7.642;2023-05-10T14:20:46;19.63;;;14.40;;
3379;SDS011;1703;51.964;7.642;2023-05-10T14:23:13;29.73;;;15.07;;
3379;SDS011;1703;51.964;7.642;2023-05-10T14:25:40;21.27;;;13.77;;
3379;SDS011;1703;51.964;7.642;2023-05-10T14:28:08;19.33;;;14.47;;
3379;SDS011;1703;51.964;7.642;2023-05-10T14:30:35;31.27;;;15.23;;
3379;SDS011;1703;51.964;7.642;2023-05-10T14:33:02;21.87;;;13.47;;
3379;SDS011;1703;51.964;7.642;2023-05-10T14:35:29;18.77;;;13.10;;
3379;SDS011;1703;51.964;7.642;2023-05-10T14:37:57;19.23;;;12.47;;
3379;SDS011;1703;51.964;7.642;2023-05-10T14:40:23;23.00;;;13.40;;
3379;SDS011;1703;51.964;7.642;2023-05-10T14:42:51;15.40;;;11.30;;
3379;SDS011;1703;51.964;7.642;2023-05-10T14:45:20;19.27;;;13.87;;
3379;SDS011;1703;51.964;7.642;2023-05-10T14:47:47;18.53;;;12.20;;
3379;SDS011;1703;51.964;7.642;2023-05-10T14:50:15;16.40;;;11.87;;
3379;SDS011;1703;51.964;7.642;2023-05-10T14:52:43;18.57;;;12.83;;
3379;SDS011;1703;51.964;7.642;2023-05-10T14:55:10;21.90;;;13.47;;
3379;SDS011;1703;51.964;7.642;2023-05-10T14:57:36;21.07;;;13.27;;
3379;SDS011;1703;51.964;7.642;2023-05-10T15:00:04;22.83;;;14.40;;
3379;SDS011;1703;51.964;7.642;2023-05-10T15:02:33;19.53;;;13.10;;
3379;SDS011;1703;51.964;7.642;2023-05-10T15:04:59;27.00;;;15.00;;
3379;SDS011;1703;51.964;7.642;2023-05-10T15:07:26;18.90;;;13.97;;
3379;SDS011;1703;51.964;7.642;2023-05-10T15:09:53;25.90;;;15.27;;